Flight Track Log - Related Links

Times and Time Zones

All times are in EDT time to prevent confusion due to time zone crossing. See the SWA543 flight status page for this flight to view local times or setup timezone preferences in your user account.

Time Position Orientation Groundspeed Altitude Reporting Facility
EDT Latitude Longitude Course Direction KTS MPH feet Rate Location/Type
Mon 06:29:18 AM 39.1833 -76.7500 270° West 213 245 2,800  Level Potomac TRACON
Mon 06:30:06 AM 39.1833 -76.8167 270° West 217 250 4,700 3,167 Climbing Potomac TRACON
Mon 06:31:06 AM 39.2000 -76.9000 284° West 269 310 8,500 3,381 Climbing Potomac TRACON
Mon 06:32:12 AM 39.2167 -77.0167 280° West 302 348 11,800 3,250 Climbing Potomac TRACON
Mon 06:33:06 AM 39.1500 -77.0833 218° Southwest 339 390 15,000 3,500 Climbing Potomac TRACON
Mon 06:34:00 AM 39.0833 -77.1500 218° Southwest 355 409 18,100 2,819 Climbing Potomac TRACON
Mon 06:35:35 AM 38.9556 -77.2839 219° Southwest 386 444 22,000 1,987 Climbing Washington Center
Mon 06:36:34 AM 38.8689 -77.3700 218° Southwest 396 456 23,200 1,563 Climbing Washington Center
Mon 06:37:34 AM 38.7800 -77.4558 217° Southwest 401 461 25,100 1,900 Climbing Washington Center
Mon 06:38:34 AM 38.6892 -77.5464 218° Southwest 401 461 27,000 942 Climbing Washington Center
Mon 06:39:35 AM 38.5958 -77.6397 218° Southwest 406 467 27,000 807 Level Washington Center
Mon 06:40:33 AM 38.5067 -77.7328 219° Southwest 418 481 28,600 1,815 Climbing Washington Center
Mon 06:41:34 AM 38.4375 -77.8581 235° Southwest 418 481 30,600 2,066 Climbing Washington Center
Mon 06:42:35 AM 38.3706 -77.9858 236° Southwest 435 501 32,800 2,016 Climbing Washington Center
Mon 06:43:36 AM 38.3053 -78.1133 237° Southwest 435 501 34,700 1,613 Climbing Washington Center
Mon 06:44:34 AM 38.2378 -78.2406 236° Southwest 435 501 36,000 655 Climbing Washington Center
Mon 06:45:35 AM 38.1725 -78.3625 236° Southwest 435 501 36,000  Level Washington Center
Mon 06:46:35 AM 38.1111 -78.4922 239° Southwest 435 501 36,000 446 Level Washington Center
Mon 06:47:36 AM 38.0667 -78.6064 244° Southwest 417 480 36,900 1,388 Climbing Washington Center
Mon 06:48:36 AM 37.9969 -78.7222 233° Southwest 417 480 38,800 1,590 Climbing Washington Center
Mon 06:49:33 AM 37.9206 -78.8481 232° Southwest 417 480 40,000 610 Climbing Washington Center
Mon 06:50:34 AM 37.8506 -78.9633 232° Southwest 417 480 40,000  Level Washington Center
Mon 06:51:35 AM 37.7806 -79.0783 232° Southwest 422 486 40,000  Level Washington Center
Mon 06:52:36 AM 37.7192 -79.1833 234° Southwest 422 486 40,000  Level Washington Center
Mon 06:53:34 AM 37.6400 -79.3106 232° Southwest 422 486 40,000  Level Washington Center
Mon 06:54:34 AM 37.5783 -79.4150 233° Southwest 422 486 40,000  Level Washington Center
Mon 06:55:34 AM 37.5014 -79.5422 233° Southwest 422 486 40,000  Level Washington Center
Mon 06:56:35 AM 37.4331 -79.6483 231° Southwest 428 493 40,000  Level Washington Center
Mon 06:57:36 AM 37.3625 -79.7622 232° Southwest 433 498 40,000  Level Washington Center
Mon 06:58:36 AM 37.2917 -79.8758 232° Southwest 428 493 40,000  Level Washington Center
Mon 06:59:34 AM 37.2139 -80.0019 232° Southwest 423 487 40,000  Level Washington Center
Mon 07:01:43 AM 37.0631 -80.2414 232° Southwest 428 493 40,000  Level Atlanta Center
Mon 07:02:43 AM 36.9892 -80.3514 230° Southwest 421 484 40,000  Level Atlanta Center
Mon 07:03:43 AM 36.9092 -80.4589 227° Southwest 421 484 40,000  Level Atlanta Center
Mon 07:04:43 AM 36.8308 -80.5636 227° Southwest 421 484 40,000  Level Atlanta Center
Mon 07:05:43 AM 36.7583 -80.6575 226° Southwest 421 484 40,000  Level Atlanta Center
Mon 07:06:43 AM 36.6839 -80.7617 228° Southwest 409 471 40,000  Level Atlanta Center
Mon 07:07:43 AM 36.6053 -80.8656 227° Southwest 409 471 40,000  Level Atlanta Center
Mon 07:08:43 AM 36.5286 -80.9669 227° Southwest 409 471 40,000  Level Atlanta Center
Mon 07:09:43 AM 36.4500 -81.0731 227° Southwest 409 471 40,000  Level Atlanta Center
Mon 07:10:43 AM 36.3731 -81.1739 227° Southwest 409 471 40,000  Level Atlanta Center
Mon 07:11:43 AM 36.2961 -81.2747 227° Southwest 409 471 40,000  Level Atlanta Center
Mon 07:12:43 AM 36.2172 -81.3778 227° Southwest 409 471 40,000 -50 Level Atlanta Center
Mon 07:13:43 AM 36.1400 -81.4831 228° Southwest 409 471 39,900 -550 Descending Atlanta Center
Mon 07:14:43 AM 36.0608 -81.5858 226° Southwest 409 471 38,900 -1,000 Descending Atlanta Center
Mon 07:15:43 AM 35.9817 -81.6883 226° Southwest 419 482 37,900 -950 Descending Atlanta Center
Mon 07:16:43 AM 35.8919 -81.8011 226° Southwest 419 482 37,000 -950 Descending Atlanta Center
Mon 07:17:43 AM 35.8103 -81.9058 226° Southwest 419 482 36,000 -950 Descending Atlanta Center
Mon 07:18:43 AM 35.7267 -82.0128 226° Southwest 429 494 35,100 -500 Descending Atlanta Center
Mon 07:19:43 AM 35.6406 -82.1119 223° Southwest 434 499 35,000 -50 Descending Atlanta Center
Mon 07:20:43 AM 35.5544 -82.2111 223° Southwest 429 494 35,000 -50 Level Atlanta Center
Mon 07:21:43 AM 35.4661 -82.3100 222° Southwest 422 486 34,900 -800 Descending Atlanta Center
Mon 07:22:43 AM 35.3778 -82.4111 223° Southwest 427 491 33,400 -1,250 Descending Atlanta Center
Mon 07:23:43 AM 35.2894 -82.5119 223° Southwest 433 498 32,400 -900 Descending Atlanta Center
Mon 07:24:43 AM 35.2069 -82.6050 223° Southwest 445 512 31,600 -900 Descending Atlanta Center
Mon 07:25:43 AM 35.1122 -82.7108 222° Southwest 451 519 30,600 -1,050 Descending Atlanta Center
Mon 07:26:43 AM 35.0092 -82.8242 222° Southwest 464 534 29,500 -1,050 Descending Atlanta Center
Mon 07:27:43 AM 34.9142 -82.9267 222° Southwest 464 534 28,500 -1,050 Descending Atlanta Center
Mon 07:28:43 AM 34.8189 -83.0317 222° Southwest 464 534 27,400 -950 Descending Atlanta Center
Mon 07:29:43 AM 34.7383 -83.1211 222° Southwest 454 522 26,600 -950 Descending Atlanta Center
Mon 07:30:43 AM 34.6492 -83.2181 222° Southwest 444 511 25,500 -1,050 Descending Atlanta Center
Mon 07:31:43 AM 34.5622 -83.3175 223° Southwest 444 511 24,500 -1,300 Descending Atlanta Center
Mon 07:32:43 AM 34.4772 -83.4139 223° Southwest 425 489 22,900 -2,100 Descending Atlanta Center
Mon 07:33:43 AM 34.3922 -83.5050 222° Southwest 413 475 20,300 -2,550 Descending Atlanta Center
Mon 07:34:43 AM 34.3131 -83.5961 224° Southwest 399 459 17,800 -2,500 Descending Atlanta Center
Mon 07:35:43 AM 34.2319 -83.6869 223° Southwest 385 443 15,300 -2,500 Descending Atlanta Center
Mon 07:36:43 AM 34.1550 -83.7678 221° Southwest 371 427 12,800 -1,650 Descending Atlanta Center
Mon 07:37:43 AM 34.0906 -83.8406 223° Southwest 349 402 12,000 -449 Descending Atlanta Center
Mon 07:38:30 AM 34.0667 -83.9000 244° Southwest 274 315 12,000  Level Atlanta TRACON
Mon 07:39:42 AM 34.0333 -84.0000 248° West 285 328 12,000 -500 Level Atlanta TRACON
Mon 07:40:42 AM 33.9833 -84.0833 234° Southwest 284 327 10,900 -1,368 Descending Atlanta TRACON
Mon 07:41:36 AM 33.9167 -84.0833 180° South 299 344 9,400 -1,650 Descending Atlanta TRACON
Mon 07:42:42 AM 33.8333 -84.0667 171° South 282 325 7,600 -1,417 Descending Atlanta TRACON
Mon 07:43:43 AM 33.7547 -84.0614 177° South 276 318 6,400 -793 Descending Atlanta Center
Mon 07:44:43 AM 33.6878 -84.0489 171° South 263 303 6,000 -486 Descending Atlanta Center
Mon 07:46:36 AM 33.6500 -84.1333 242° Southwest 182 209 5,000 -555 Descending Atlanta TRACON
Mon 07:47:36 AM 33.6500 -84.2000 270° West 184 212 4,400 -800 Descending Atlanta TRACON
Mon 07:48:36 AM 33.6500 -84.2500 270° West 177 204 3,400 -850 Descending Atlanta TRACON
Mon 07:49:36 AM 33.6500 -84.3000 270° West 133 153 2,700 -667 Descending Atlanta TRACON
Mon 07:50:42 AM 33.6500 -84.3500 270° West 116 133 2,000 -650 Descending Atlanta TRACON
Mon 07:51:36 AM 33.6500 -84.3833 270° West 119 137 1,400 -667 Descending Atlanta TRACON
Mon 07:53:00 AM 33.6367 -84.4279 270° West  Level Estimated
Mon 08:00:00 AM 33.6367 -84.4279 64° Northeast  Level Estimated
Mon 08:01:00 AM 33.6367 -84.4279 64° Northeast  Level Estimated

Login

Don't have an account? Register now (free) for customized features, flight alerts, and more!